Time;durP1;ratioP1;P1;durP2;ratioP2;P2;SDS_P1;SDS_P2;PMS_P1;PMS_P2;Temp;Humidity;BMP_temperature;BMP_pressure;BME280_temperature;BME280_humidity;BME280_pressure;Samples;Min_cycle;Max_cycle;Signal;HPM_P1;HPM_P2
2021/08/04 00:02:15;;;;;;;3.00;2.80;;;16.20;93.00;;;;;;5061835;28;20204;-90
2021/08/04 00:04:40;;;;;;;3.87;3.33;;;16.20;92.90;;;;;;5060484;28;20192;-90
2021/08/04 00:07:06;;;;;;;4.23;3.20;;;16.20;93.80;;;;;;5060622;28;20197;-90
2021/08/04 00:09:32;;;;;;;3.57;3.27;;;16.20;92.90;;;;;;5047929;28;20223;-91
2021/08/04 00:11:58;;;;;;;3.23;3.00;;;16.20;92.70;;;;;;5055137;28;20192;-91
2021/08/04 00:14:24;;;;;;;6.27;3.23;;;16.10;93.80;;;;;;5057940;28;20286;-90
2021/08/04 00:16:50;;;;;;;4.27;3.30;;;16.00;94.40;;;;;;5026722;28;20538;-90
2021/08/04 00:19:16;;;;;;;3.57;3.27;;;15.90;94.90;;;;;;5043445;28;20205;-90
2021/08/04 00:21:41;;;;;;;3.80;3.40;;;15.90;95.70;;;;;;5044231;28;20184;-91
2021/08/04 00:24:07;;;;;;;3.60;3.30;;;15.80;96.40;;;;;;5063033;28;20189;-93
2021/08/04 00:26:33;;;;;;;3.90;3.47;;;15.80;96.60;;;;;;5049115;28;20208;-91
2021/08/04 00:28:59;;;;;;;3.93;3.53;;;15.80;96.70;;;;;;5052897;28;20220;-90
2021/08/04 00:31:24;;;;;;;3.40;2.93;;;15.80;97.30;;;;;;5058549;28;20720;-91
2021/08/04 00:33:50;;;;;;;3.77;3.07;;;15.80;97.70;;;;;;5048853;28;20668;-91
2021/08/04 00:36:16;;;;;;;3.93;3.57;;;15.70;97.70;;;;;;5038386;28;20195;-91
2021/08/04 00:38:42;;;;;;;6.27;3.13;;;15.70;98.30;;;;;;5060562;28;20211;-90
2021/08/04 00:41:07;;;;;;;4.63;3.40;;;15.70;97.30;;;;;;5061941;28;20188;-91
2021/08/04 00:43:33;;;;;;;4.63;3.13;;;15.80;97.10;;;;;;5052576;28;20207;-91
2021/08/04 00:45:59;;;;;;;4.60;3.50;;;15.80;96.40;;;;;;5052161;28;20193;-91
2021/08/04 00:48:25;;;;;;;3.47;3.03;;;15.80;96.20;;;;;;5044190;28;20192;-91
2021/08/04 00:50:51;;;;;;;3.90;3.50;;;15.90;96.00;;;;;;5050540;28;20199;-91
2021/08/04 00:53:28;;;;;;;5.53;4.10;;;16.00;96.30;;;;;;5049909;28;20544;-90
2021/08/04 00:55:56;;;;;;;3.97;3.33;;;15.90;96.20;;;;;;5044570;28;20192;-92
2021/08/04 00:58:38;;;;;;;3.50;3.20;;;15.90;96.10;;;;;;5047112;28;20184;-91
2021/08/04 01:01:17;;;;;;;4.20;3.17;;;16.00;96.80;;;;;;5055528;28;20218;-90
2021/08/04 01:03:46;;;;;;;4.50;3.20;;;16.00;95.90;;;;;;5057785;28;20192;-91
2021/08/04 01:06:20;;;;;;;3.37;3.00;;;15.90;96.20;;;;;;5053188;28;20203;-90
2021/08/04 01:08:54;;;;;;;3.57;3.07;;;15.90;96.30;;;;;;5060151;28;20599;-90
2021/08/04 01:11:21;;;;;;;3.80;3.20;;;15.90;96.70;;;;;;5051834;28;20508;-90
2021/08/04 01:13:49;;;;;;;3.53;3.23;;;15.90;96.40;;;;;;5053862;28;20233;-91
2021/08/04 01:16:29;;;;;;;3.60;3.20;;;15.90;96.40;;;;;;5044279;28;20193;-90
2021/08/04 01:19:12;;;;;;;4.23;3.80;;;15.90;96.50;;;;;;5046651;28;20200;-90
2021/08/04 01:21:49;;;;;;;3.30;3.00;;;15.80;97.30;;;;;;5050698;28;20260;-90
2021/08/04 01:24:25;;;;;;;4.10;3.30;;;15.80;96.80;;;;;;5051319;28;20205;-91
2021/08/04 01:26:52;;;;;;;5.00;3.10;;;15.90;96.50;;;;;;5060292;28;20241;-92
2021/08/04 01:29:20;;;;;;;3.83;3.03;;;15.80;96.30;;;;;;5061077;28;20275;-90
2021/08/04 01:31:50;;;;;;;4.57;3.53;;;15.90;96.90;;;;;;5050751;28;20211;-91
2021/08/04 01:34:18;;;;;;;4.57;3.50;;;15.90;96.40;;;;;;5051061;28;20217;-91
2021/08/04 01:36:44;;;;;;;4.27;3.20;;;15.90;96.00;;;;;;5060923;28;20183;-90
2021/08/04 01:39:13;;;;;;;4.43;3.23;;;15.90;95.90;;;;;;5059341;28;20287;-90
2021/08/04 01:41:41;;;;;;;3.63;3.27;;;16.00;96.30;;;;;;5057769;28;20282;-91
2021/08/04 01:44:07;;;;;;;4.43;3.50;;;15.80;96.20;;;;;;5056435;28;20197;-91
2021/08/04 01:46:34;;;;;;;3.37;3.07;;;15.90;96.50;;;;;;5060043;28;20199;-91
2021/08/04 01:49:02;;;;;;;2.90;2.63;;;15.80;96.80;;;;;;5035358;28;20240;-91
2021/08/04 01:51:29;;;;;;;4.00;3.13;;;15.80;96.60;;;;;;5031499;28;20200;-91
2021/08/04 01:53:56;;;;;;;3.67;3.03;;;15.90;95.70;;;;;;5041376;28;20215;-91
2021/08/04 01:56:22;;;;;;;4.83;3.50;;;15.90;95.30;;;;;;5055624;28;20192;-90
2021/08/04 01:58:47;;;;;;;3.70;2.93;;;15.80;95.90;;;;;;5048427;28;20214;-91
2021/08/04 02:01:13;;;;;;;3.23;3.03;;;15.80;95.70;;;;;;5051796;28;20963;-91
2021/08/04 02:03:39;;;;;;;4.17;3.07;;;15.80;95.70;;;;;;5058669;28;20220;-91
2021/08/04 02:06:27;;;;;;;3.90;3.50;;;15.80;95.60;;;;;;5056679;28;20213;-91
2021/08/04 02:09:00;;;;;;;3.60;3.30;;;15.80;95.70;;;;;;5048801;28;20242;-90
2021/08/04 02:12:06;;;;;;;4.17;3.03;;;15.80;95.70;;;;;;5058369;28;20622;-91
2021/08/04 02:14:54;;;;;;;4.10;3.33;;;15.80;95.50;;;;;;5057403;28;20231;-91
2021/08/04 02:17:23;;;;;;;4.20;2.83;;;15.90;95.40;;;;;;5059337;28;20183;-91
2021/08/04 02:19:54;;;;;;;5.60;3.43;;;15.80;95.00;;;;;;5057739;28;20221;-90
2021/08/04 02:22:46;;;;;;;3.40;3.10;;;15.90;95.70;;;;;;5059281;28;20184;-91
2021/08/04 02:25:34;;;;;;;3.57;3.30;;;15.70;96.30;;;;;;5019858;28;20234;-90
2021/08/04 02:28:02;;;;;;;3.30;3.10;;;15.80;96.00;;;;;;5058280;28;20189;-92
2021/08/04 02:30:30;;;;;;;4.57;3.37;;;15.80;95.70;;;;;;5040823;28;20204;-91
2021/08/04 02:32:56;;;;;;;3.97;3.30;;;15.80;95.10;;;;;;5047277;28;20193;-92
2021/08/04 02:35:23;;;;;;;6.00;3.60;;;15.80;95.00;;;;;;5042885;28;20216;-92
2021/08/04 02:37:49;;;;;;;3.47;3.17;;;15.90;95.30;;;;;;5060708;28;20188;-92
2021/08/04 02:40:15;;;;;;;3.43;3.13;;;15.90;95.50;;;;;;5059427;28;20222;-90
2021/08/04 02:42:43;;;;;;;4.20;3.30;;;15.80;95.70;;;;;;5048008;28;20216;-91
2021/08/04 02:45:09;;;;;;;3.87;3.57;;;15.70;96.30;;;;;;5057218;28;20276;-91
2021/08/04 02:47:36;;;;;;;4.90;3.17;;;15.70;96.20;;;;;;5057532;28;20203;-91
2021/08/04 02:50:03;;;;;;;4.93;3.37;;;15.80;95.30;;;;;;5057255;28;20215;-90
2021/08/04 02:52:29;;;;;;;6.27;3.47;;;15.80;95.30;;;;;;5042729;28;20256;-92
2021/08/04 02:54:55;;;;;;;4.20;3.63;;;15.80;95.70;;;;;;5059122;28;20245;-92
2021/08/04 02:57:21;;;;;;;4.03;3.50;;;15.80;95.50;;;;;;5039688;28;20654;-90
2021/08/04 02:59:47;;;;;;;5.20;3.90;;;15.80;95.50;;;;;;5057529;28;20193;-92
2021/08/04 03:02:13;;;;;;;4.20;3.80;;;15.80;95.50;;;;;;5057742;28;20186;-90
2021/08/04 03:04:38;;;;;;;4.07;3.67;;;15.80;95.70;;;;;;5038245;28;20896;-91
2021/08/04 03:07:04;;;;;;;4.30;3.50;;;15.80;95.60;;;;;;5043480;28;20553;-91
2021/08/04 03:09:30;;;;;;;5.70;3.30;;;15.70;96.40;;;;;;5057365;28;20216;-91
2021/08/04 03:11:56;;;;;;;5.40;3.80;;;15.80;95.60;;;;;;5050893;28;20192;-91
2021/08/04 03:14:22;;;;;;;3.97;3.30;;;15.70;96.00;;;;;;5048218;28;20214;-90
2021/08/04 03:16:48;;;;;;;3.60;3.30;;;15.70;96.50;;;;;;5043246;28;20217;-91
2021/08/04 03:19:14;;;;;;;4.27;3.83;;;15.80;95.50;;;;;;5039135;28;20212;-90
2021/08/04 03:21:40;;;;;;;6.60;3.60;;;15.70;95.50;;;;;;5056052;28;20194;-91
2021/08/04 03:24:06;;;;;;;6.57;3.40;;;15.70;95.50;;;;;;5062267;28;20242;-90
2021/08/04 03:26:33;;;;;;;4.07;3.50;;;15.80;95.90;;;;;;5019623;28;20194;-90
2021/08/04 03:28:58;;;;;;;5.00;3.77;;;15.80;95.10;;;;;;5047260;28;20208;-90
2021/08/04 03:31:24;;;;;;;4.20;3.50;;;15.70;95.20;;;;;;5043246;28;20204;-91
2021/08/04 03:33:50;;;;;;;4.00;3.60;;;15.80;94.90;;;;;;5043529;28;20220;-91
2021/08/04 03:36:16;;;;;;;3.63;3.27;;;15.80;94.40;;;;;;5016679;28;20210;-90
2021/08/04 03:38:41;;;;;;;3.80;3.20;;;15.80;95.00;;;;;;5047760;28;20264;-91
2021/08/04 03:41:07;;;;;;;3.60;3.17;;;15.80;94.40;;;;;;5059368;28;20201;-91
2021/08/04 03:43:33;;;;;;;3.80;3.50;;;15.80;94.60;;;;;;5059031;28;20196;-91
2021/08/04 03:45:59;;;;;;;3.27;3.00;;;15.90;93.80;;;;;;5055923;28;20199;-90
2021/08/04 03:48:24;;;;;;;3.43;3.13;;;16.00;93.50;;;;;;5041827;28;20209;-91
2021/08/04 03:50:50;;;;;;;3.50;2.87;;;16.10;93.20;;;;;;5056896;28;20200;-91
2021/08/04 03:53:16;;;;;;;3.37;3.00;;;16.10;92.80;;;;;;5056428;28;20718;-91
2021/08/04 03:55:42;;;;;;;3.37;3.03;;;16.20;92.80;;;;;;5057628;28;20206;-90
2021/08/04 03:58:07;;;;;;;4.57;3.57;;;16.30;92.10;;;;;;5029028;28;20207;-90
2021/08/04 04:00:33;;;;;;;3.60;3.30;;;16.20;92.20;;;;;;5035124;28;20227;-92
2021/08/04 04:02:59;;;;;;;4.23;3.23;;;16.30;92.60;;;;;;5056729;28;20199;-90
2021/08/04 04:05:25;;;;;;;3.70;3.40;;;16.40;92.10;;;;;;5038179;28;20387;-91
2021/08/04 04:07:50;;;;;;;4.30;3.50;;;16.40;91.70;;;;;;5047410;28;20217;-89
2021/08/04 04:10:16;;;;;;;3.80;3.50;;;16.60;91.30;;;;;;5045399;28;20217;-91
2021/08/04 04:12:42;;;;;;;3.53;3.23;;;16.60;90.50;;;;;;5044658;28;20194;-91
2021/08/04 04:15:08;;;;;;;3.37;2.77;;;16.60;90.50;;;;;;5058487;28;20219;-90
2021/08/04 04:17:34;;;;;;;3.30;3.00;;;16.70;90.40;;;;;;5060772;28;20213;-92
2021/08/04 04:20:00;;;;;;;5.15;3.45;;;16.70;90.20;;;;;;5062033;28;20277;-90
2021/08/04 04:22:25;;;;;;;3.35;3.10;;;16.70;90.50;;;;;;5060788;28;20194;-91
2021/08/04 04:24:51;;;;;;;4.20;3.25;;;16.80;89.80;;;;;;5058499;28;20197;-91
2021/08/04 04:27:17;;;;;;;4.07;3.70;;;16.80;89.70;;;;;;5041064;28;20237;-90
2021/08/04 04:29:43;;;;;;;4.05;3.60;;;16.90;89.70;;;;;;5059432;28;20217;-91
2021/08/04 04:32:09;;;;;;;3.60;3.30;;;16.90;89.00;;;;;;5053847;28;20342;-91
2021/08/04 04:34:35;;;;;;;3.63;3.33;;;16.80;88.80;;;;;;5059068;28;20403;-89
2021/08/04 04:37:01;;;;;;;3.72;3.15;;;16.90;88.20;;;;;;5061332;28;20184;-92
2021/08/04 04:39:27;;;;;;;6.70;2.90;;;16.90;88.50;;;;;;5055123;28;20264;-91
2021/08/04 04:41:53;;;;;;;4.03;3.60;;;16.90;87.80;;;;;;5057882;28;20195;-91
2021/08/04 04:44:19;;;;;;;4.60;3.30;;;16.80;88.70;;;;;;5053676;28;20199;-91
2021/08/04 04:46:45;;;;;;;4.33;3.07;;;16.70;89.20;;;;;;5049557;28;20565;-91
2021/08/04 04:49:10;;;;;;;3.53;3.22;;;16.80;89.00;;;;;;5048830;28;20302;-90
2021/08/04 04:51:36;;;;;;;4.20;3.15;;;16.90;88.30;;;;;;5059311;28;20199;-91
2021/08/04 04:54:02;;;;;;;3.38;3.08;;;16.90;88.80;;;;;;5062099;28;20220;-91
2021/08/04 04:56:28;;;;;;;4.68;3.67;;;16.90;88.30;;;;;;5058881;28;20202;-91
2021/08/04 04:58:56;;;;;;;4.60;3.00;;;16.90;88.50;;;;;;5044100;28;20215;-91
2021/08/04 05:01:22;;;;;;;3.53;3.25;;;17.00;88.10;;;;;;5036176;28;20217;-93
2021/08/04 05:03:48;;;;;;;5.88;3.42;;;17.00;87.80;;;;;;5056423;28;20216;-91
2021/08/04 05:06:14;;;;;;;3.67;3.38;;;16.90;88.30;;;;;;5056033;28;20221;-91
2021/08/04 05:08:39;;;;;;;4.28;3.38;;;16.90;88.10;;;;;;5048832;28;20776;-91
2021/08/04 05:11:05;;;;;;;4.47;4.07;;;16.70;89.30;;;;;;5053567;28;20208;-91
2021/08/04 05:13:31;;;;;;;4.63;3.10;;;16.70;89.40;;;;;;5062912;28;20194;-92
2021/08/04 05:15:57;;;;;;;4.20;3.50;;;16.80;89.00;;;;;;5057351;28;20187;-92
2021/08/04 05:18:22;;;;;;;4.78;3.60;;;16.60;90.00;;;;;;5060015;28;20213;-91
2021/08/04 05:20:48;;;;;;;4.33;3.67;;;16.60;90.50;;;;;;5056068;28;20205;-92
2021/08/04 05:23:14;;;;;;;3.90;3.60;;;16.50;90.40;;;;;;5040116;28;20244;-92
2021/08/04 05:25:41;;;;;;;7.27;3.17;;;16.60;90.30;;;;;;5065455;28;20212;-94
2021/08/04 05:28:07;;;;;;;4.20;3.57;;;16.60;89.50;;;;;;5066501;28;20198;-93
2021/08/04 05:30:32;;;;;;;3.40;3.10;;;16.60;90.10;;;;;;5060364;28;20686;-91
2021/08/04 05:32:58;;;;;;;4.30;3.90;;;16.60;90.20;;;;;;5036119;28;20193;-92
2021/08/04 05:35:24;;;;;;;5.53;3.70;;;16.70;89.60;;;;;;5056506;28;20831;-92
2021/08/04 05:37:50;;;;;;;4.03;3.72;;;16.80;88.90;;;;;;5054410;28;20202;-92
2021/08/04 05:40:16;;;;;;;10.00;9.20;;;16.70;90.00;;;;;;5044947;28;20209;-93
2021/08/04 05:42:41;;;;;;;5.00;3.50;;;16.60;90.10;;;;;;5045588;28;20230;-91
2021/08/04 05:45:08;;;;;;;3.97;3.57;;;16.50;90.70;;;;;;5052163;28;20201;-91
2021/08/04 05:47:33;;;;;;;6.50;3.80;;;16.50;91.10;;;;;;5048684;28;20193;-92
2021/08/04 05:49:59;;;;;;;3.73;3.37;;;16.60;90.60;;;;;;5043446;28;20226;-91
2021/08/04 05:52:25;;;;;;;5.30;3.73;;;16.50;91.90;;;;;;5050055;28;20188;-92
2021/08/04 05:54:51;;;;;;;3.67;3.23;;;16.60;90.70;;;;;;5048534;28;20224;-91
2021/08/04 05:57:17;;;;;;;4.43;3.63;;;16.40;92.10;;;;;;5044354;28;20242;-93
2021/08/04 05:59:42;;;;;;;4.23;3.67;;;16.20;93.30;;;;;;5059596;28;20267;-92
2021/08/04 06:02:08;;;;;;;7.03;3.70;;;16.20;93.90;;;;;;5034660;28;20603;-93
2021/08/04 06:04:34;;;;;;;5.03;3.67;;;16.30;93.60;;;;;;5051951;28;20212;-92
2021/08/04 06:07:00;;;;;;;4.00;3.50;;;16.30;93.30;;;;;;5065150;28;20204;-92
2021/08/04 06:09:26;;;;;;;6.30;3.50;;;16.40;93.60;;;;;;5058173;28;20220;-93
2021/08/04 06:11:52;;;;;;;3.87;3.57;;;16.50;92.30;;;;;;5059031;28;20290;-92
2021/08/04 06:14:18;;;;;;;5.13;3.73;;;16.40;92.10;;;;;;5030729;28;20211;-92
2021/08/04 06:16:43;;;;;;;4.33;3.60;;;16.50;91.30;;;;;;5054524;28;20200;-92
2021/08/04 06:19:09;;;;;;;4.17;3.67;;;16.60;91.20;;;;;;5054426;28;20232;-91
2021/08/04 06:21:35;;;;;;;4.63;3.60;;;16.60;91.10;;;;;;5024615;28;20184;-91
2021/08/04 06:24:01;;;;;;;4.07;3.50;;;16.60;90.70;;;;;;5023543;28;20221;-92
2021/08/04 06:26:27;;;;;;;5.07;3.90;;;16.60;90.80;;;;;;5040562;28;20200;-91
2021/08/04 06:28:53;;;;;;;5.80;4.30;;;16.60;90.80;;;;;;5048575;28;20214;-92
2021/08/04 06:31:18;;;;;;;5.33;3.70;;;16.70;91.70;;;;;;5053220;28;20195;-91
2021/08/04 06:33:44;;;;;;;6.10;4.10;;;16.70;90.50;;;;;;5030446;28;20839;-90
2021/08/04 06:36:10;;;;;;;4.97;3.43;;;16.50;90.90;;;;;;5032454;28;20254;-91
2021/08/04 06:38:36;;;;;;;4.80;3.60;;;16.50;91.70;;;;;;5058072;28;20197;-90
2021/08/04 06:41:02;;;;;;;4.87;3.97;;;16.50;90.50;;;;;;5029382;28;20191;-90
2021/08/04 06:43:27;;;;;;;4.00;3.53;;;16.70;89.50;;;;;;5051917;28;20195;-91
2021/08/04 06:45:53;;;;;;;5.37;3.90;;;16.50;92.00;;;;;;5049530;28;20203;-90
2021/08/04 06:48:19;;;;;;;3.87;3.57;;;16.60;90.30;;;;;;5050582;28;20192;-91
2021/08/04 06:50:45;;;;;;;4.60;3.40;;;16.90;88.80;;;;;;5046535;28;20295;-90
2021/08/04 06:53:11;;;;;;;4.70;3.90;;;16.90;89.60;;;;;;5055971;28;20194;-90
2021/08/04 06:55:37;;;;;;;4.53;3.50;;;17.00;87.90;;;;;;5020652;28;20219;-90
2021/08/04 06:58:03;;;;;;;3.70;3.40;;;17.20;88.00;;;;;;5053833;28;20189;-90
2021/08/04 07:00:29;;;;;;;4.10;3.70;;;17.10;87.80;;;;;;5052863;28;20261;-89
2021/08/04 07:02:55;;;;;;;3.40;3.10;;;17.20;87.40;;;;;;5056409;28;20192;-91
2021/08/04 07:05:21;;;;;;;3.53;3.23;;;17.20;88.20;;;;;;5050085;28;20197;-92
2021/08/04 07:07:47;;;;;;;4.70;3.97;;;17.40;86.70;;;;;;5044922;28;20286;-91
2021/08/04 07:10:13;;;;;;;4.83;3.77;;;17.40;86.70;;;;;;5061598;28;20217;-91
2021/08/04 07:12:40;;;;;;;3.43;3.13;;;17.50;86.70;;;;;;5057891;28;20196;-90
2021/08/04 07:15:07;;;;;;;4.43;3.70;;;17.50;88.40;;;;;;5054558;28;20236;-91
2021/08/04 07:17:49;;;;;;;4.17;3.50;;;17.50;86.50;;;;;;5045837;28;20194;-92
2021/08/04 07:20:18;;;;;;;4.53;3.57;;;17.30;83.90;;;;;;5045762;28;20213;-90
2021/08/04 07:22:44;;;;;;;3.70;3.40;;;17.20;85.00;;;;;;5032699;28;20185;-90
2021/08/04 07:25:11;;;;;;;4.77;3.30;;;17.40;83.50;;;;;;5028766;28;24294;-90
2021/08/04 07:27:38;;;;;;;3.50;3.20;;;17.40;83.30;;;;;;5045499;28;20225;-90
2021/08/04 07:30:06;;;;;;;5.57;3.57;;;17.50;81.40;;;;;;5047543;28;20213;-90
2021/08/04 07:32:33;;;;;;;3.53;3.23;;;17.50;82.40;;;;;;5042961;28;20198;-89
2021/08/04 07:35:01;;;;;;;4.73;3.63;;;17.40;84.10;;;;;;5029839;28;20216;-91
2021/08/04 07:37:28;;;;;;;4.67;3.73;;;17.50;82.20;;;;;;5049143;28;20186;-90
2021/08/04 07:39:55;;;;;;;3.57;3.27;;;17.70;82.30;;;;;;5031627;28;20226;-91
2021/08/04 07:42:22;;;;;;;3.73;3.37;;;17.50;80.00;;;;;;5056934;28;20209;-92
2021/08/04 07:44:48;;;;;;;3.57;3.27;;;17.50;80.50;;;;;;5056784;28;20221;-91
2021/08/04 07:47:14;;;;;;;4.23;3.43;;;17.70;80.90;;;;;;5039851;28;20206;-91
2021/08/04 07:49:40;;;;;;;3.50;3.20;;;17.70;81.30;;;;;;5053403;28;20213;-91
2021/08/04 07:52:06;;;;;;;3.72;3.28;;;17.80;80.50;;;;;;5039663;28;20191;-91
2021/08/04 07:54:32;;;;;;;3.70;3.40;;;18.00;81.30;;;;;;5054174;28;20214;-91
2021/08/04 07:56:57;;;;;;;4.20;3.50;;;18.40;78.50;;;;;;5054910;28;20269;-88
2021/08/04 07:59:23;;;;;;;6.43;3.65;;;18.50;76.10;;;;;;5049865;28;20585;-89
2021/08/04 08:01:49;;;;;;;3.78;3.45;;;18.50;75.60;;;;;;5034259;28;20206;-89
2021/08/04 08:04:14;;;;;;;3.40;3.00;;;18.60;74.60;;;;;;5059838;28;20263;-89
2021/08/04 08:06:40;;;;;;;4.13;3.42;;;18.60;75.80;;;;;;5046177;28;20237;-89
2021/08/04 08:09:06;;;;;;;11.25;4.25;;;18.70;74.70;;;;;;5015293;28;20213;-89
2021/08/04 08:11:32;;;;;;;3.83;3.38;;;18.60;76.10;;;;;;5054930;28;20652;-89
2021/08/04 08:13:58;;;;;;;4.60;3.78;;;18.50;76.80;;;;;;5039877;28;20361;-89
2021/08/04 08:16:24;;;;;;;4.35;3.78;;;18.50;76.00;;;;;;5049050;28;20498;-91
2021/08/04 08:18:49;;;;;;;3.53;3.22;;;18.40;74.40;;;;;;5032474;28;20214;-90
2021/08/04 08:21:15;;;;;;;4.03;3.63;;;18.50;74.50;;;;;;5048951;28;20209;-90
2021/08/04 08:23:41;;;;;;;3.50;3.20;;;18.40;74.80;;;;;;5036036;28;20191;-91
2021/08/04 08:26:07;;;;;;;5.05;3.38;;;18.80;71.40;;;;;;5039364;28;20248;-92
2021/08/04 08:28:33;;;;;;;3.40;3.10;;;19.20;67.50;;;;;;5049335;28;20233;-90
2021/08/04 08:30:58;;;;;;;3.08;2.88;;;19.40;67.50;;;;;;5051851;28;20206;-91
2021/08/04 08:33:24;;;;;;;3.40;3.10;;;19.20;68.20;;;;;;5050835;28;20218;-92
2021/08/04 08:35:50;;;;;;;3.80;3.42;;;19.00;71.90;;;;;;5050293;28;20640;-92
2021/08/04 08:38:16;;;;;;;3.88;3.17;;;18.90;73.70;;;;;;5049233;28;20206;-91
2021/08/04 08:40:45;;;;;;;3.45;3.17;;;19.20;68.10;;;;;;5035250;28;20233;-91
2021/08/04 08:43:14;;;;;;;3.65;3.35;;;19.20;68.50;;;;;;5048013;28;20202;-90
2021/08/04 08:45:41;;;;;;;4.03;3.58;;;19.00;70.00;;;;;;5048808;28;20617;-92
2021/08/04 08:48:10;;;;;;;3.50;3.20;;;19.10;70.20;;;;;;5051747;28;20196;-90
2021/08/04 08:50:39;;;;;;;3.72;3.40;;;19.20;70.00;;;;;;5048571;28;20250;-91
2021/08/04 08:53:05;;;;;;;3.38;3.08;;;19.10;71.10;;;;;;5029671;28;20287;-89
2021/08/04 08:55:33;;;;;;;3.92;3.63;;;19.20;71.20;;;;;;5049245;28;20269;-89
2021/08/04 08:57:59;;;;;;;4.32;3.30;;;19.30;69.40;;;;;;5032627;28;20202;-91
2021/08/04 09:00:24;;;;;;;3.60;3.30;;;19.60;68.90;;;;;;5050141;28;20723;-91
2021/08/04 09:02:50;;;;;;;3.65;3.35;;;19.70;70.60;;;;;;5052699;28;20185;-91
2021/08/04 09:05:17;;;;;;;4.22;3.58;;;19.90;68.10;;;;;;5027270;28;20189;-91
2021/08/04 09:07:47;;;;;;;3.85;3.55;;;20.00;67.80;;;;;;5048373;28;20203;-90
2021/08/04 09:10:30;;;;;;;3.70;3.40;;;19.80;69.00;;;;;;5052739;28;20263;-90
2021/08/04 09:13:01;;;;;;;3.63;3.40;;;19.70;68.10;;;;;;5054375;28;20261;-92
2021/08/04 09:15:33;;;;;;;4.00;3.55;;;19.60;69.00;;;;;;5056076;28;20208;-92
2021/08/04 09:18:07;;;;;;;4.60;4.20;;;19.90;69.10;;;;;;5033918;28;20189;-90
2021/08/04 09:20:55;;;;;;;3.90;3.60;;;20.00;68.60;;;;;;5049646;28;20200;-91
2021/08/04 09:23:25;;;;;;;3.20;3.00;;;19.90;68.00;;;;;;5011574;28;20185;-91
2021/08/04 09:26:03;;;;;;;4.47;3.58;;;20.40;68.50;;;;;;5049578;28;20677;-91
2021/08/04 09:28:30;;;;;;;3.90;3.47;;;20.40;69.30;;;;;;5053266;28;20188;-91
2021/08/04 09:31:01;;;;;;;3.97;3.67;;;20.40;67.40;;;;;;5034564;28;20352;-91
2021/08/04 09:33:36;;;;;;;3.20;3.00;;;20.40;67.70;;;;;;5049526;28;20233;-90
2021/08/04 09:36:04;;;;;;;3.60;3.30;;;20.40;66.10;;;;;;5056288;28;20750;-91
2021/08/04 09:38:31;;;;;;;4.00;3.50;;;20.80;65.40;;;;;;5036760;28;20294;-93
2021/08/04 09:41:18;;;;;;;3.85;3.58;;;21.30;63.80;;;;;;5037601;28;20209;-91
2021/08/04 09:43:51;;;;;;;3.55;3.25;;;21.30;65.10;;;;;;5049197;28;20173;-91
2021/08/04 09:46:25;;;;;;;3.35;3.15;;;21.30;63.20;;;;;;5035426;28;20660;-93
2021/08/04 09:48:51;;;;;;;3.38;3.13;;;21.30;63.40;;;;;;5035409;28;20209;-90
2021/08/04 09:51:19;;;;;;;4.05;3.08;;;21.10;61.70;;;;;;5055216;28;20226;-90
2021/08/04 09:53:52;;;;;;;3.60;3.30;;;21.40;59.00;;;;;;5056655;28;20230;-91
2021/08/04 09:56:21;;;;;;;3.65;3.35;;;21.50;58.00;;;;;;5045616;28;20192;-91
2021/08/04 09:58:51;;;;;;;3.65;3.35;;;21.60;59.10;;;;;;5051284;28;20199;-91
2021/08/04 10:01:20;;;;;;;3.75;3.45;;;21.90;59.10;;;;;;5045948;28;20188;-91
2021/08/04 10:04:07;;;;;;;4.38;3.17;;;22.00;59.10;;;;;;5049962;28;20730;-90
2021/08/04 10:06:34;;;;;;;3.33;3.05;;;21.80;58.70;;;;;;5039100;28;20726;-90
2021/08/04 10:09:00;;;;;;;4.03;3.30;;;21.60;59.30;;;;;;5051294;28;20208;-91
2021/08/04 10:11:28;;;;;;;4.75;3.30;;;22.10;57.90;;;;;;5037368;28;20200;-91
2021/08/04 10:13:56;;;;;;;3.63;3.33;;;22.50;57.20;;;;;;5040297;28;20672;-90
2021/08/04 10:16:33;;;;;;;3.65;3.35;;;22.60;57.10;;;;;;5034148;28;20271;-90
2021/08/04 10:19:02;;;;;;;3.60;3.30;;;22.70;57.30;;;;;;5050242;28;20196;-90
2021/08/04 10:21:27;;;;;;;3.72;3.35;;;22.80;55.80;;;;;;5048341;28;20751;-91
2021/08/04 10:23:54;;;;;;;3.25;2.97;;;22.90;55.40;;;;;;5030077;28;20211;-90
2021/08/04 10:26:21;;;;;;;3.97;3.58;;;23.10;56.40;;;;;;5033906;28;20676;-90
2021/08/04 10:28:51;;;;;;;3.72;3.38;;;23.10;55.30;;;;;;5048507;28;20188;-89
2021/08/04 10:31:19;;;;;;;3.60;3.35;;;23.00;56.00;;;;;;5052548;28;20279;-91
2021/08/04 10:33:45;;;;;;;3.20;3.00;;;23.20;54.60;;;;;;5014571;28;20194;-89
2021/08/04 10:36:13;;;;;;;3.92;3.15;;;23.30;55.00;;;;;;5016885;28;20216;-89
2021/08/04 10:38:49;;;;;;;3.50;3.17;;;23.20;55.00;;;;;;5035913;28;20185;-90
2021/08/04 10:41:19;;;;;;;3.75;3.40;;;23.30;54.70;;;;;;5054282;28;20266;-90
2021/08/04 10:43:45;;;;;;;3.55;3.22;;;23.30;55.10;;;;;;5038348;28;20184;-89
2021/08/04 10:46:31;;;;;;;3.20;3.00;;;23.30;55.30;;;;;;5032429;28;20215;-88
2021/08/04 10:49:04;;;;;;;4.10;3.20;;;22.80;56.10;;;;;;5055045;28;20204;-88
2021/08/04 10:51:43;;;;;;;4.63;3.72;;;22.50;56.60;;;;;;5054014;28;20260;-87
2021/08/04 10:54:14;;;;;;;3.40;3.10;;;22.60;58.30;;;;;;5053861;28;20297;-88
2021/08/04 10:56:44;;;;;;;4.13;3.20;;;23.20;54.10;;;;;;5051567;28;20175;-87
2021/08/04 10:59:12;;;;;;;3.15;2.95;;;23.30;55.10;;;;;;5032252;28;20306;-90
2021/08/04 11:01:45;;;;;;;3.38;3.00;;;23.00;53.20;;;;;;5048505;28;20745;-89
2021/08/04 11:04:44;;;;;;;3.10;2.90;;;23.20;51.20;;;;;;5050306;28;20198;-90
2021/08/04 11:07:16;;;;;;;3.47;3.17;;;23.50;52.00;;;;;;5050311;28;20718;-90
2021/08/04 11:09:51;;;;;;;3.90;3.00;;;23.80;51.30;;;;;;5034616;28;20214;-90
2021/08/04 11:12:20;;;;;;;4.45;3.20;;;24.30;51.60;;;;;;5056213;28;20731;-90
2021/08/04 11:14:49;;;;;;;3.92;2.95;;;24.70;50.60;;;;;;5035856;28;20243;-89
2021/08/04 11:17:20;;;;;;;3.20;2.90;;;24.60;50.00;;;;;;5051681;28;20173;-90
2021/08/04 11:20:08;;;;;;;3.30;3.00;;;24.40;52.00;;;;;;5057044;28;20215;-90
2021/08/04 11:22:40;;;;;;;3.75;3.45;;;24.40;51.20;;;;;;5065424;28;20243;-90
2021/08/04 11:25:11;;;;;;;3.33;3.13;;;24.30;51.10;;;;;;5064398;28;20191;-89
2021/08/04 11:27:45;;;;;;;3.05;2.85;;;24.60;50.50;;;;;;5058814;28;20214;-91
2021/08/04 11:30:14;;;;;;;3.10;2.90;;;24.70;47.50;;;;;;5038843;28;20721;-90
2021/08/04 11:32:40;;;;;;;4.55;3.20;;;24.50;49.20;;;;;;5054692;28;20180;-89
2021/08/04 11:35:17;;;;;;;3.25;3.05;;;24.20;50.50;;;;;;5027433;28;20223;-90
2021/08/04 11:37:44;;;;;;;3.40;3.10;;;24.90;47.40;;;;;;5035639;28;20192;-90
2021/08/04 11:40:10;;;;;;;3.80;3.50;;;25.40;47.50;;;;;;5051933;28;20227;-89
2021/08/04 11:42:36;;;;;;;3.28;3.05;;;25.40;48.90;;;;;;5055635;28;20172;-90
2021/08/04 11:45:08;;;;;;;3.53;3.33;;;25.10;48.80;;;;;;5053756;28;20188;-89
2021/08/04 11:47:34;;;;;;;3.17;2.97;;;25.40;49.60;;;;;;5031868;28;20193;-89
2021/08/04 11:50:05;;;;;;;3.83;3.53;;;25.50;48.30;;;;;;5047925;28;20273;-89
2021/08/04 11:52:33;;;;;;;3.58;3.28;;;25.00;50.60;;;;;;5058344;28;20211;-91
2021/08/04 11:55:05;;;;;;;3.40;3.10;;;25.10;50.80;;;;;;5052935;28;20219;-91
2021/08/04 11:57:37;;;;;;;3.28;3.00;;;25.30;50.20;;;;;;5040584;28;20184;-91
2021/08/04 12:00:07;;;;;;;3.05;2.80;;;25.50;48.30;;;;;;5056933;28;20200;-91
2021/08/04 12:02:35;;;;;;;3.53;3.22;;;25.60;49.00;;;;;;5055059;28;20177;-91
2021/08/04 12:05:03;;;;;;;3.28;3.08;;;25.80;48.00;;;;;;5055407;28;20210;-91
2021/08/04 12:07:32;;;;;;;3.60;3.30;;;25.90;46.80;;;;;;5040151;28;20204;-91
2021/08/04 12:10:02;;;;;;;3.50;3.20;;;25.90;46.50;;;;;;5037026;28;20700;-91
2021/08/04 12:12:38;;;;;;;3.85;3.55;;;26.10;47.60;;;;;;5041235;28;20208;-91
2021/08/04 12:15:15;;;;;;;2.95;2.75;;;26.20;44.30;;;;;;5038843;28;20200;-90
2021/08/04 12:17:41;;;;;;;2.97;2.78;;;26.20;46.00;;;;;;5047429;28;20172;-90
2021/08/04 12:20:25;;;;;;;4.07;2.75;;;26.40;46.10;;;;;;5032668;28;20747;-92
2021/08/04 12:23:12;;;;;;;3.00;2.80;;;26.40;45.50;;;;;;5020807;28;20673;-92
2021/08/04 12:25:40;;;;;;;2.92;2.72;;;26.10;47.00;;;;;;5033369;28;20682;-89
2021/08/04 12:28:08;;;;;;;3.03;2.83;;;25.80;45.60;;;;;;5020982;28;20754;-91
2021/08/04 12:30:43;;;;;;;3.22;3.03;;;25.80;46.00;;;;;;5050265;28;20213;-90
2021/08/04 12:33:16;;;;;;;3.38;3.10;;;25.50;44.00;;;;;;5054151;28;20184;-90
2021/08/04 12:36:46;;;;;;;3.70;3.40;;;25.40;46.60;;;;;;5047807;28;20219;-90
2021/08/04 12:38:41;;;;;;;2.92;2.72;;;25.10;50.00;;;;;;5042736;28;20742;-91
2021/08/04 12:41:09;;;;;;;2.92;2.75;;;25.00;50.00;;;;;;5051217;28;20596;-90
2021/08/04 12:43:40;;;;;;;4.53;2.65;;;25.40;47.30;;;;;;5048959;28;20185;-90
2021/08/04 12:46:08;;;;;;;2.67;2.58;;;25.50;47.50;;;;;;5047621;28;20215;-90
2021/08/04 12:48:42;;;;;;;2.90;2.70;;;25.70;46.00;;;;;;5024966;28;20200;-91
2021/08/04 12:51:14;;;;;;;2.95;2.75;;;25.90;45.90;;;;;;5054513;28;20251;-90
2021/08/04 12:53:41;;;;;;;3.10;2.90;;;25.90;45.20;;;;;;5054804;28;20720;-90
2021/08/04 12:56:20;;;;;;;3.97;3.17;;;25.50;45.50;;;;;;5053413;28;20316;-91